Time;durP1;ratioP1;P1;durP2;ratioP2;P2;SDS_P1;SDS_P2;PMS_P1;PMS_P2;Temp;Humidity;BMP_temperature;BMP_pressure;BME280_temperature;BME280_humidity;BME280_pressure;Samples;Min_cycle;Max_cycle;Signal;HPM_P1;HPM_P2
2022/03/08 00:01:20;;;;;;;17.73;10.57;;;;;;;;;;5061456;28;20042;-67
2022/03/08 00:03:46;;;;;;;17.88;10.10;;;;;;;;;;5064017;28;20028;-67
2022/03/08 00:06:11;;;;;;;16.05;9.90;;;;;;;;;;5062640;28;20043;-67
2022/03/08 00:08:36;;;;;;;17.15;10.13;;;;;;;;;;5064848;28;20431;-67
2022/03/08 00:11:03;;;;;;;17.42;10.65;;;;;;;;;;5065659;28;20057;-67
2022/03/08 00:13:29;;;;;;;20.65;9.88;;;;;;;;;;5064826;28;20060;-67
2022/03/08 00:15:54;;;;;;;16.85;10.13;;;;;;;;;;5065910;28;20570;-67
2022/03/08 00:18:22;;;;;;;20.50;10.40;;;;;;;;;;5064618;28;20063;-67
2022/03/08 00:20:47;;;;;;;21.65;10.48;;;;;;;;;;5060492;28;20036;-69
2022/03/08 00:23:15;;;;;;;17.75;9.85;;;;;;;;;;5064138;28;20020;-68
2022/03/08 00:25:40;;;;;;;17.25;10.18;;;;;;;;;;5059786;28;20028;-68
2022/03/08 00:28:06;;;;;;;18.42;10.32;;;;;;;;;;5062011;28;20046;-69
2022/03/08 00:30:31;;;;;;;19.13;10.73;;;;;;;;;;5066043;28;20024;-69
2022/03/08 00:32:56;;;;;;;18.75;10.88;;;;;;;;;;5064621;28;20024;-69
2022/03/08 00:35:22;;;;;;;18.35;10.32;;;;;;;;;;5067142;28;20470;-69
2022/03/08 00:37:48;;;;;;;16.38;9.95;;;;;;;;;;5065211;28;20882;-69
2022/03/08 00:40:13;;;;;;;17.95;10.45;;;;;;;;;;5060934;28;20081;-69
2022/03/08 00:42:39;;;;;;;17.73;10.32;;;;;;;;;;5060913;28;20029;-69
2022/03/08 00:45:07;;;;;;;16.90;9.70;;;;;;;;;;5063999;28;20541;-69
2022/03/08 00:47:35;;;;;;;16.33;10.52;;;;;;;;;;5064287;28;20074;-69
2022/03/08 00:50:00;;;;;;;18.83;10.45;;;;;;;;;;5064947;28;20130;-70
2022/03/08 00:52:26;;;;;;;18.42;9.88;;;;;;;;;;5059381;28;20040;-68
2022/03/08 00:54:52;;;;;;;19.13;10.18;;;;;;;;;;5046605;28;20127;-69
2022/03/08 00:57:18;;;;;;;17.10;10.50;;;;;;;;;;5064713;28;20028;-68
2022/03/08 00:59:43;;;;;;;18.45;10.85;;;;;;;;;;5065457;28;20082;-70
2022/03/08 01:02:10;;;;;;;18.05;10.32;;;;;;;;;;5066231;28;20558;-69
2022/03/08 01:04:36;;;;;;;18.60;10.75;;;;;;;;;;5063077;28;20050;-69
2022/03/08 01:07:02;;;;;;;15.43;10.15;;;;;;;;;;5065642;28;20098;-69
2022/03/08 01:09:27;;;;;;;16.17;10.13;;;;;;;;;;5063923;28;20059;-69
2022/03/08 01:11:53;;;;;;;19.58;10.13;;;;;;;;;;5061906;28;20028;-68
2022/03/08 01:14:23;;;;;;;15.73;10.13;;;;;;;;;;5065277;28;20186;-68
2022/03/08 01:16:48;;;;;;;16.45;9.48;;;;;;;;;;5065281;28;20047;-69
2022/03/08 01:19:16;;;;;;;17.52;9.48;;;;;;;;;;5064006;28;20036;-69
2022/03/08 01:21:42;;;;;;;14.25;9.27;;;;;;;;;;5064065;28;20227;-68
2022/03/08 01:24:09;;;;;;;16.98;9.32;;;;;;;;;;5046294;28;20163;-68
2022/03/08 01:26:35;;;;;;;16.58;8.70;;;;;;;;;;5065346;28;20227;-68
2022/03/08 01:29:00;;;;;;;15.60;9.02;;;;;;;;;;5064601;28;20047;-68
2022/03/08 01:31:26;;;;;;;12.57;8.75;;;;;;;;;;5065088;28;20468;-68
2022/03/08 01:33:54;;;;;;;12.68;8.52;;;;;;;;;;5064499;28;20503;-68
2022/03/08 01:36:20;;;;;;;15.18;8.65;;;;;;;;;;5047202;28;20034;-68
2022/03/08 01:38:46;;;;;;;11.68;8.32;;;;;;;;;;5058164;28;20032;-69
2022/03/08 01:41:11;;;;;;;13.60;8.55;;;;;;;;;;5062862;28;20100;-69
2022/03/08 01:43:36;;;;;;;14.25;7.90;;;;;;;;;;5061543;28;20123;-69
2022/03/08 01:46:02;;;;;;;11.52;7.50;;;;;;;;;;5057680;28;20070;-69
2022/03/08 01:48:28;;;;;;;13.63;8.10;;;;;;;;;;5064259;28;20020;-69
2022/03/08 01:50:54;;;;;;;13.93;7.88;;;;;;;;;;5062611;28;20062;-69
2022/03/08 01:53:19;;;;;;;11.85;7.68;;;;;;;;;;5064220;28;20077;-69
2022/03/08 01:55:44;;;;;;;10.65;7.00;;;;;;;;;;5063028;28;20062;-68
2022/03/08 01:58:10;;;;;;;11.43;7.30;;;;;;;;;;5063762;28;20028;-69
2022/03/08 02:00:35;;;;;;;11.45;7.10;;;;;;;;;;5063546;28;20057;-69
2022/03/08 02:03:01;;;;;;;11.25;6.85;;;;;;;;;;5064003;28;20056;-68
2022/03/08 02:05:27;;;;;;;9.55;6.47;;;;;;;;;;5064707;28;20031;-68
2022/03/08 02:07:53;;;;;;;9.80;6.63;;;;;;;;;;5063541;28;20028;-68
2022/03/08 02:10:18;;;;;;;11.88;6.65;;;;;;;;;;5062221;28;20121;-68
2022/03/08 02:12:46;;;;;;;11.70;6.38;;;;;;;;;;5058911;28;20774;-68
2022/03/08 02:15:16;;;;;;;12.10;6.82;;;;;;;;;;5062813;28;20066;-68
2022/03/08 02:17:42;;;;;;;13.82;6.30;;;;;;;;;;5064383;28;20032;-69
2022/03/08 02:20:08;;;;;;;9.90;6.03;;;;;;;;;;5063043;28;20521;-68
2022/03/08 02:22:34;;;;;;;12.02;6.00;;;;;;;;;;5063416;28;20237;-68
2022/03/08 02:25:02;;;;;;;11.27;6.85;;;;;;;;;;5062467;28;20122;-69
2022/03/08 02:27:27;;;;;;;10.55;6.90;;;;;;;;;;5063437;28;20103;-68
2022/03/08 02:29:52;;;;;;;10.52;6.85;;;;;;;;;;5064340;28;20495;-68
2022/03/08 02:32:18;;;;;;;10.73;6.43;;;;;;;;;;5062621;28;20127;-68
2022/03/08 02:34:45;;;;;;;12.52;6.72;;;;;;;;;;5061765;28;20027;-67
2022/03/08 02:37:12;;;;;;;10.27;6.28;;;;;;;;;;5060543;28;20028;-68
2022/03/08 02:39:38;;;;;;;8.88;6.20;;;;;;;;;;5078090;28;20122;-68
2022/03/08 02:42:04;;;;;;;10.35;6.72;;;;;;;;;;5060676;28;20027;-67
2022/03/08 02:44:30;;;;;;;14.50;7.97;;;;;;;;;;5063247;28;20039;-67
2022/03/08 02:46:56;;;;;;;16.80;7.95;;;;;;;;;;5063503;28;20024;-69
2022/03/08 02:49:21;;;;;;;15.27;7.95;;;;;;;;;;5061788;28;20281;-69
2022/03/08 02:51:49;;;;;;;13.27;7.97;;;;;;;;;;5064710;28;21794;-69
2022/03/08 02:54:16;;;;;;;14.73;7.68;;;;;;;;;;5046423;28;20305;-67
2022/03/08 02:56:41;;;;;;;13.48;7.78;;;;;;;;;;5062825;28;20082;-68
2022/03/08 02:59:07;;;;;;;17.15;8.65;;;;;;;;;;5062926;28;20115;-68
2022/03/08 03:01:33;;;;;;;15.93;8.50;;;;;;;;;;5063533;28;20484;-68
2022/03/08 03:03:58;;;;;;;14.10;7.65;;;;;;;;;;5064105;28;20036;-68
2022/03/08 03:06:24;;;;;;;13.63;7.82;;;;;;;;;;5067077;28;20197;-68
2022/03/08 03:08:50;;;;;;;14.15;7.90;;;;;;;;;;5065768;28;20046;-67
2022/03/08 03:11:17;;;;;;;12.48;7.78;;;;;;;;;;5065428;28;20181;-68
2022/03/08 03:13:43;;;;;;;10.52;7.75;;;;;;;;;;5062463;28;20055;-67
2022/03/08 03:16:09;;;;;;;11.85;7.15;;;;;;;;;;5065079;28;20040;-67
2022/03/08 03:18:34;;;;;;;13.25;7.22;;;;;;;;;;5064705;28;20036;-68
2022/03/08 03:20:59;;;;;;;12.40;7.80;;;;;;;;;;5067772;28;20032;-67
2022/03/08 03:23:30;;;;;;;9.77;7.10;;;;;;;;;;5062483;28;20047;-68
2022/03/08 03:25:56;;;;;;;10.73;7.10;;;;;;;;;;5083498;28;20048;-68
2022/03/08 03:28:21;;;;;;;11.10;7.15;;;;;;;;;;5067397;28;20439;-68
2022/03/08 03:30:47;;;;;;;14.07;7.18;;;;;;;;;;5066016;28;20176;-68
2022/03/08 03:33:12;;;;;;;12.85;8.23;;;;;;;;;;5067048;28;20059;-68
2022/03/08 03:35:37;;;;;;;11.95;7.45;;;;;;;;;;5066450;28;20043;-68
2022/03/08 03:38:03;;;;;;;12.70;7.90;;;;;;;;;;5061464;28;20717;-68
2022/03/08 03:40:29;;;;;;;10.30;7.28;;;;;;;;;;5066446;28;20039;-68
2022/03/08 03:42:59;;;;;;;13.32;7.43;;;;;;;;;;5065754;28;20035;-68
2022/03/08 03:45:25;;;;;;;12.82;7.55;;;;;;;;;;5062780;28;20043;-68
2022/03/08 03:47:53;;;;;;;12.57;7.65;;;;;;;;;;5062647;28;20238;-68
2022/03/08 03:50:21;;;;;;;12.60;7.65;;;;;;;;;;5065091;28;20031;-69
2022/03/08 03:52:46;;;;;;;10.85;7.25;;;;;;;;;;5067244;28;20038;-69
2022/03/08 03:55:12;;;;;;;11.07;7.05;;;;;;;;;;5081589;28;20049;-68
2022/03/08 03:57:40;;;;;;;10.32;6.57;;;;;;;;;;5065695;28;20349;-68
2022/03/08 04:00:06;;;;;;;10.15;6.90;;;;;;;;;;5065768;28;20360;-68
2022/03/08 04:02:31;;;;;;;13.10;7.50;;;;;;;;;;5066340;28;20054;-68
2022/03/08 04:04:57;;;;;;;11.07;7.78;;;;;;;;;;5066009;28;20050;-68
2022/03/08 04:07:22;;;;;;;10.57;7.60;;;;;;;;;;5064802;28;20036;-68
2022/03/08 04:09:49;;;;;;;11.93;7.95;;;;;;;;;;5066110;28;20082;-69
2022/03/08 04:12:15;;;;;;;12.43;7.47;;;;;;;;;;5064671;28;20032;-68
2022/03/08 04:14:40;;;;;;;12.13;7.68;;;;;;;;;;5066345;28;20028;-68
2022/03/08 04:17:06;;;;;;;13.13;8.00;;;;;;;;;;5065405;28;20044;-67
2022/03/08 04:19:31;;;;;;;12.60;8.18;;;;;;;;;;5050145;28;20099;-67
2022/03/08 04:21:59;;;;;;;12.43;7.97;;;;;;;;;;5050115;28;20048;-68
2022/03/08 04:24:27;;;;;;;13.55;7.93;;;;;;;;;;5064819;28;20149;-68
2022/03/08 04:26:58;;;;;;;13.65;8.30;;;;;;;;;;5064454;28;20036;-68
2022/03/08 04:29:25;;;;;;;12.98;8.38;;;;;;;;;;5066043;28;20054;-68
2022/03/08 04:31:51;;;;;;;14.52;8.77;;;;;;;;;;5065461;28;20036;-69
2022/03/08 04:34:17;;;;;;;12.13;8.27;;;;;;;;;;5065547;28;20029;-68
2022/03/08 04:36:42;;;;;;;12.80;8.23;;;;;;;;;;5063857;28;20471;-69
2022/03/08 04:39:09;;;;;;;11.20;8.02;;;;;;;;;;5068261;28;20213;-69
2022/03/08 04:41:34;;;;;;;12.68;8.63;;;;;;;;;;5061986;28;20900;-68
2022/03/08 04:44:00;;;;;;;13.32;8.70;;;;;;;;;;5062959;28;20028;-69
2022/03/08 04:46:25;;;;;;;13.48;8.60;;;;;;;;;;5066850;28;20039;-68
2022/03/08 04:48:50;;;;;;;11.65;8.40;;;;;;;;;;5046783;28;20091;-69
2022/03/08 04:51:16;;;;;;;14.38;8.50;;;;;;;;;;5064919;28;20073;-69
2022/03/08 04:53:42;;;;;;;13.98;8.55;;;;;;;;;;5063536;28;20027;-68
2022/03/08 04:56:07;;;;;;;14.82;8.77;;;;;;;;;;5033105;28;20502;-69
2022/03/08 04:58:32;;;;;;;12.40;8.68;;;;;;;;;;5064987;28;20037;-68
2022/03/08 05:01:00;;;;;;;14.45;8.52;;;;;;;;;;5067457;28;20781;-68
2022/03/08 05:03:26;;;;;;;13.13;8.30;;;;;;;;;;5066061;28;20101;-67
2022/03/08 05:05:54;;;;;;;14.35;8.60;;;;;;;;;;5065481;28;20503;-68
2022/03/08 05:08:19;;;;;;;12.93;8.13;;;;;;;;;;5066170;28;20032;-68
2022/03/08 05:10:44;;;;;;;16.35;8.43;;;;;;;;;;5063657;28;20042;-67
2022/03/08 05:13:09;;;;;;;14.48;8.82;;;;;;;;;;5065344;28;20233;-68
2022/03/08 05:15:36;;;;;;;13.63;7.72;;;;;;;;;;5063224;28;20058;-67
2022/03/08 05:18:02;;;;;;;11.65;8.13;;;;;;;;;;5079016;28;20032;-67
2022/03/08 05:20:27;;;;;;;12.20;8.43;;;;;;;;;;5065672;28;20117;-68
2022/03/08 05:22:53;;;;;;;14.48;7.95;;;;;;;;;;5065670;28;20032;-68
2022/03/08 05:25:21;;;;;;;14.25;7.60;;;;;;;;;;5045459;28;20430;-68
2022/03/08 05:27:49;;;;;;;11.95;7.70;;;;;;;;;;5063370;28;20178;-68
2022/03/08 05:30:14;;;;;;;11.73;7.43;;;;;;;;;;5060361;28;20124;-68
2022/03/08 05:32:40;;;;;;;13.68;8.15;;;;;;;;;;5063394;28;20032;-68
2022/03/08 05:35:06;;;;;;;14.73;8.07;;;;;;;;;;5060685;28;20145;-68
2022/03/08 05:37:33;;;;;;;12.05;7.70;;;;;;;;;;5062310;28;20192;-68
2022/03/08 05:40:01;;;;;;;22.52;8.80;;;;;;;;;;5065163;28;20085;-67
2022/03/08 05:42:26;;;;;;;12.82;7.75;;;;;;;;;;5064627;28;20057;-67
2022/03/08 05:44:51;;;;;;;12.38;7.55;;;;;;;;;;5049230;28;20040;-67
2022/03/08 05:47:16;;;;;;;16.70;8.10;;;;;;;;;;5062724;28;20043;-68
2022/03/08 05:49:42;;;;;;;12.23;8.05;;;;;;;;;;5064974;28;20188;-68
2022/03/08 05:52:07;;;;;;;13.52;7.40;;;;;;;;;;5061587;28;20164;-68
2022/03/08 05:54:32;;;;;;;14.02;8.15;;;;;;;;;;5064152;28;20067;-69
2022/03/08 05:57:00;;;;;;;15.50;7.88;;;;;;;;;;5062547;28;20399;-68
2022/03/08 05:59:25;;;;;;;14.55;8.60;;;;;;;;;;5063366;28;20036;-68
2022/03/08 06:01:53;;;;;;;12.02;8.13;;;;;;;;;;5059361;28;20155;-68
2022/03/08 06:04:19;;;;;;;18.25;8.23;;;;;;;;;;5062680;28;20391;-68
2022/03/08 06:06:44;;;;;;;12.77;7.22;;;;;;;;;;5062098;28;20035;-67
2022/03/08 06:09:09;;;;;;;10.93;8.00;;;;;;;;;;5063432;28;20024;-68
2022/03/08 06:11:35;;;;;;;11.05;6.78;;;;;;;;;;5062584;28;20104;-68
2022/03/08 06:14:01;;;;;;;11.43;7.90;;;;;;;;;;5063119;28;20031;-68
2022/03/08 06:16:26;;;;;;;13.93;7.85;;;;;;;;;;5063199;28;20085;-68
2022/03/08 06:18:56;;;;;;;11.88;8.00;;;;;;;;;;5061797;28;20305;-68
2022/03/08 06:21:21;;;;;;;11.73;7.43;;;;;;;;;;5062928;28;20467;-69
2022/03/08 06:23:47;;;;;;;13.82;7.90;;;;;;;;;;5057819;28;20035;-68
2022/03/08 06:26:12;;;;;;;12.52;7.47;;;;;;;;;;5062724;28;20028;-69
2022/03/08 06:28:38;;;;;;;11.82;7.45;;;;;;;;;;5057762;28;20024;-69
2022/03/08 06:31:03;;;;;;;12.27;8.00;;;;;;;;;;5079706;28;20020;-69
2022/03/08 06:33:33;;;;;;;13.07;7.80;;;;;;;;;;5063834;28;20155;-69
2022/03/08 06:35:58;;;;;;;11.60;8.02;;;;;;;;;;5061479;28;20048;-70
2022/03/08 06:38:24;;;;;;;11.32;7.60;;;;;;;;;;5044618;28;20183;-70
2022/03/08 06:40:51;;;;;;;12.43;7.93;;;;;;;;;;5084349;28;20032;-70
2022/03/08 06:43:17;;;;;;;14.70;7.82;;;;;;;;;;5065686;28;20100;-71
2022/03/08 06:45:44;;;;;;;14.63;8.15;;;;;;;;;;5064332;28;20030;-69
2022/03/08 06:48:12;;;;;;;13.40;8.65;;;;;;;;;;5066017;28;20110;-70
2022/03/08 06:50:38;;;;;;;15.38;8.30;;;;;;;;;;5051089;28;20432;-69
2022/03/08 06:53:03;;;;;;;13.82;8.90;;;;;;;;;;5071085;28;20028;-69
2022/03/08 06:55:29;;;;;;;14.40;8.57;;;;;;;;;;5066118;28;21915;-69
2022/03/08 06:57:55;;;;;;;13.00;8.18;;;;;;;;;;5065838;28;20097;-69
2022/03/08 07:00:23;;;;;;;13.43;8.32;;;;;;;;;;5068913;28;20032;-69
2022/03/08 07:02:48;;;;;;;12.23;8.00;;;;;;;;;;5063159;28;20291;-69
2022/03/08 07:05:13;;;;;;;15.48;8.65;;;;;;;;;;5069082;28;20066;-70
2022/03/08 07:07:38;;;;;;;14.32;8.27;;;;;;;;;;5073835;28;20408;-70
2022/03/08 07:10:05;;;;;;;15.38;8.68;;;;;;;;;;5073361;28;20031;-69
2022/03/08 07:12:36;;;;;;;13.80;7.80;;;;;;;;;;5067882;28;20391;-69
2022/03/08 07:15:01;;;;;;;10.63;7.80;;;;;;;;;;5073122;28;20066;-70
2022/03/08 07:17:27;;;;;;;11.52;7.93;;;;;;;;;;5068638;28;20484;-70
2022/03/08 07:19:53;;;;;;;10.70;7.57;;;;;;;;;;5070666;28;20052;-70
2022/03/08 07:22:18;;;;;;;12.68;8.30;;;;;;;;;;5069048;28;20089;-69
2022/03/08 07:24:45;;;;;;;12.95;7.90;;;;;;;;;;5069061;28;20125;-70
2022/03/08 07:27:11;;;;;;;14.02;8.20;;;;;;;;;;5068502;28;20039;-69
2022/03/08 07:29:36;;;;;;;13.07;8.30;;;;;;;;;;5065929;28;20407;-69
2022/03/08 07:32:04;;;;;;;15.10;8.57;;;;;;;;;;5071066;28;20495;-69
2022/03/08 07:34:30;;;;;;;14.30;8.40;;;;;;;;;;5069308;28;20032;-69
2022/03/08 07:36:55;;;;;;;12.23;7.53;;;;;;;;;;5069391;28;20044;-69
2022/03/08 07:39:21;;;;;;;11.45;7.57;;;;;;;;;;5065138;28;20459;-69
2022/03/08 07:41:46;;;;;;;13.50;7.82;;;;;;;;;;5066595;28;20028;-69
2022/03/08 07:44:12;;;;;;;12.77;7.55;;;;;;;;;;5068006;28;20488;-68
2022/03/08 07:46:39;;;;;;;11.43;7.90;;;;;;;;;;5049512;28;20206;-68
2022/03/08 07:49:04;;;;;;;13.60;8.05;;;;;;;;;;5066763;28;20085;-69
2022/03/08 07:51:29;;;;;;;10.45;7.30;;;;;;;;;;5050045;28;20423;-69
2022/03/08 07:53:55;;;;;;;15.82;8.32;;;;;;;;;;5067617;28;20032;-68
2022/03/08 07:56:20;;;;;;;14.50;7.78;;;;;;;;;;5049246;28;20054;-68
2022/03/08 07:58:46;;;;;;;11.93;7.47;;;;;;;;;;5067319;28;20770;-68
2022/03/08 08:01:12;;;;;;;12.57;7.38;;;;;;;;;;5047986;28;20135;-69
2022/03/08 08:03:38;;;;;;;13.00;7.32;;;;;;;;;;5064327;28;20035;-70
2022/03/08 08:06:04;;;;;;;10.77;6.78;;;;;;;;;;5064711;28;20028;-70
2022/03/08 08:08:29;;;;;;;12.50;7.38;;;;;;;;;;5066037;28;20036;-69
2022/03/08 08:10:55;;;;;;;13.45;7.18;;;;;;;;;;5067564;28;20067;-68
2022/03/08 08:13:21;;;;;;;10.95;6.50;;;;;;;;;;5066726;28;20024;-69
2022/03/08 08:15:46;;;;;;;9.88;6.65;;;;;;;;;;5064795;28;20031;-69
2022/03/08 08:18:12;;;;;;;11.88;6.78;;;;;;;;;;5064533;28;21841;-69
2022/03/08 08:20:38;;;;;;;10.48;6.47;;;;;;;;;;5067233;28;20231;-69
2022/03/08 08:23:03;;;;;;;11.10;6.03;;;;;;;;;;5066162;28;20044;-69
2022/03/08 08:25:29;;;;;;;8.82;6.57;;;;;;;;;;5061410;28;20031;-69
2022/03/08 08:27:55;;;;;;;7.90;6.63;;;;;;;;;;5067949;28;20020;-69
2022/03/08 08:30:22;;;;;;;11.02;6.43;;;;;;;;;;5050113;28;20398;-70
2022/03/08 08:32:50;;;;;;;8.85;6.43;;;;;;;;;;5066823;28;20028;-69
2022/03/08 08:35:16;;;;;;;9.07;6.47;;;;;;;;;;5065664;28;20036;-69
2022/03/08 08:37:41;;;;;;;8.43;6.07;;;;;;;;;;5065196;28;20061;-69
2022/03/08 08:40:07;;;;;;;11.25;6.97;;;;;;;;;;5065673;28;20402;-70
2022/03/08 08:42:35;;;;;;;11.85;7.30;;;;;;;;;;5063216;28;20032;-70
2022/03/08 08:45:00;;;;;;;11.10;6.75;;;;;;;;;;5064661;28;20054;-69
2022/03/08 08:47:26;;;;;;;10.25;6.82;;;;;;;;;;5064611;28;20031;-69
2022/03/08 08:49:51;;;;;;;9.65;6.63;;;;;;;;;;5065872;28;20019;-70
2022/03/08 08:52:16;;;;;;;8.40;6.35;;;;;;;;;;5064950;28;20055;-69
2022/03/08 08:54:42;;;;;;;12.02;7.18;;;;;;;;;;5066348;28;20694;-70
2022/03/08 08:57:07;;;;;;;9.15;6.00;;;;;;;;;;5064673;28;20044;-69
2022/03/08 08:59:33;;;;;;;8.35;5.93;;;;;;;;;;5065747;28;20131;-69
2022/03/08 09:01:58;;;;;;;10.32;6.38;;;;;;;;;;5063909;28;20036;-69
2022/03/08 09:04:24;;;;;;;10.50;5.53;;;;;;;;;;5059907;28;20027;-69
2022/03/08 09:06:49;;;;;;;8.07;5.80;;;;;;;;;;5064565;28;20036;-69
2022/03/08 09:09:15;;;;;;;10.05;6.07;;;;;;;;;;5062575;28;20024;-68
2022/03/08 09:11:46;;;;;;;9.73;6.00;;;;;;;;;;5059994;28;20043;-69
2022/03/08 09:14:11;;;;;;;9.18;6.10;;;;;;;;;;5061788;28;20197;-70
2022/03/08 09:16:37;;;;;;;11.68;6.00;;;;;;;;;;5063346;28;20071;-69
2022/03/08 09:19:03;;;;;;;11.00;5.93;;;;;;;;;;5063898;28;20184;-69
2022/03/08 09:21:29;;;;;;;8.40;5.45;;;;;;;;;;5063847;28;20093;-70
2022/03/08 09:23:54;;;;;;;8.57;5.70;;;;;;;;;;5058390;28;20492;-69
2022/03/08 09:26:20;;;;;;;7.57;5.47;;;;;;;;;;5063065;28;20545;-69
2022/03/08 09:28:48;;;;;;;12.02;6.18;;;;;;;;;;5063335;28;20154;-69
2022/03/08 09:31:13;;;;;;;10.63;5.75;;;;;;;;;;5063038;28;20253;-70
2022/03/08 09:33:39;;;;;;;8.82;5.45;;;;;;;;;;5062721;28;20040;-70
2022/03/08 09:36:07;;;;;;;15.07;6.70;;;;;;;;;;5062610;28;20028;-69
2022/03/08 09:38:32;;;;;;;11.32;6.15;;;;;;;;;;5062045;28;20746;-69
2022/03/08 09:41:00;;;;;;;9.20;5.78;;;;;;;;;;5061661;28;20043;-70
2022/03/08 09:43:26;;;;;;;11.90;5.40;;;;;;;;;;5063306;28;20047;-67
2022/03/08 09:45:51;;;;;;;11.85;6.10;;;;;;;;;;5063759;28;20114;-68
2022/03/08 09:48:18;;;;;;;14.40;6.55;;;;;;;;;;5059655;28;20028;-68
2022/03/08 09:50:44;;;;;;;12.88;6.85;;;;;;;;;;5063668;28;20043;-67
2022/03/08 09:53:13;;;;;;;12.30;5.82;;;;;;;;;;5061184;28;20093;-71
2022/03/08 09:55:39;;;;;;;18.85;7.28;;;;;;;;;;5065969;28;20044;-74
2022/03/08 09:58:05;;;;;;;12.32;7.30;;;;;;;;;;5063147;28;20077;-69
2022/03/08 10:00:32;;;;;;;29.77;12.80;;;;;;;;;;5057803;28;20048;-68
2022/03/08 10:02:58;;;;;;;24.15;10.10;;;;;;;;;;5061258;28;20032;-69
2022/03/08 10:05:28;;;;;;;21.17;9.43;;;;;;;;;;5063357;28;20459;-68
2022/03/08 10:08:01;;;;;;;15.65;8.32;;;;;;;;;;5062690;28;20032;-68
2022/03/08 10:10:26;;;;;;;20.45;8.30;;;;;;;;;;5062206;28;20112;-70
2022/03/08 10:12:58;;;;;;;15.55;6.93;;;;;;;;;;5062267;28;20115;-69
2022/03/08 10:15:24;;;;;;;;;;;;;;;;;;5063206;28;20032;-73
2022/03/08 10:17:49;;;;;;;18.02;6.68;;;;;;;;;;5063199;28;19919;-72
2022/03/08 10:20:26;;;;;;;13.68;7.30;;;;;;;;;;5063856;28;20066;-69
2022/03/08 10:22:51;;;;;;;12.65;6.63;;;;;;;;;;5061263;28;20028;-69
2022/03/08 10:25:18;;;;;;;14.40;6.30;;;;;;;;;;5060993;28;20047;-69
2022/03/08 10:27:50;;;;;;;13.13;6.78;;;;;;;;;;5061923;28;20749;-69
2022/03/08 10:30:18;;;;;;;19.02;8.93;;;;;;;;;;5061414;28;20024;-69
2022/03/08 10:32:45;;;;;;;45.10;16.85;;;;;;;;;;5060791;28;20144;-69
2022/03/08 10:35:11;;;;;;;28.88;11.40;;;;;;;;;;5061973;28;21952;-67
2022/03/08 10:37:38;;;;;;;14.05;7.03;;;;;;;;;;5060973;28;20226;-69
2022/03/08 10:40:06;;;;;;;14.90;8.18;;;;;;;;;;5061637;28;20278;-69
2022/03/08 10:42:36;;;;;;;12.95;7.25;;;;;;;;;;5059856;28;20026;-69
2022/03/08 10:45:07;;;;;;;14.98;7.85;;;;;;;;;;5061730;28;20047;-68
2022/03/08 10:47:39;;;;;;;14.32;8.48;;;;;;;;;;5060048;28;20024;-69
2022/03/08 10:50:05;;;;;;;17.90;8.40;;;;;;;;;;5060296;28;20385;-69
2022/03/08 10:52:32;;;;;;;16.77;7.80;;;;;;;;;;5027009;28;20059;-69
2022/03/08 10:57:58;;;;;;;12.48;6.45;;;;;;;;;;5047583;27;20421;-68
2022/03/08 11:00:25;;;;;;;10.18;6.32;;;;;;;;;;5039882;28;20949;-68
2022/03/08 11:02:50;;;;;;;10.23;5.90;;;;;;;;;;5039971;28;20028;-68
2022/03/08 11:05:19;;;;;;;10.77;6.25;;;;;;;;;;5054696;28;20035;-68
2022/03/08 11:07:47;;;;;;;11.00;5.65;;;;;;;;;;5039385;28;20120;-69
2022/03/08 11:10:15;;;;;;;11.13;5.88;;;;;;;;;;5036908;28;20571;-69
2022/03/08 11:12:41;;;;;;;14.00;6.57;;;;;;;;;;5021949;28;20649;-68
2022/03/08 11:15:07;;;;;;;12.77;5.60;;;;;;;;;;5038610;28;20272;-68
2022/03/08 11:17:35;;;;;;;14.65;7.00;;;;;;;;;;5037024;28;20476;-69
2022/03/08 11:20:02;;;;;;;40.90;18.38;;;;;;;;;;5039115;28;20491;-69
2022/03/08 11:22:28;;;;;;;13.63;7.20;;;;;;;;;;5038560;28;20052;-69
2022/03/08 11:24:54;;;;;;;11.80;7.53;;;;;;;;;;5023478;28;20144;-70
2022/03/08 11:27:20;;;;;;;9.60;6.38;;;;;;;;;;5039545;28;20060;-68
2022/03/08 11:29:45;;;;;;;20.90;12.02;;;;;;;;;;5020534;28;20123;-70
2022/03/08 11:32:20;;;;;;;13.05;8.40;;;;;;;;;;5020015;28;20476;-69
2022/03/08 11:34:47;;;;;;;12.55;8.48;;;;;;;;;;5038607;28;20082;-69
2022/03/08 11:37:18;;;;;;;12.23;7.10;;;;;;;;;;5036373;28;20025;-69
2022/03/08 11:39:44;;;;;;;10.25;6.60;;;;;;;;;;5016228;28;20040;-69
2022/03/08 11:42:18;;;;;;;11.80;7.00;;;;;;;;;;5021960;28;20099;-69
2022/03/08 11:44:54;;;;;;;14.95;7.60;;;;;;;;;;5036945;28;20054;-70
2022/03/08 11:47:19;;;;;;;14.88;7.25;;;;;;;;;;5038167;28;20755;-69
2022/03/08 11:49:46;;;;;;;11.52;6.80;;;;;;;;;;5038177;28;20559;-68
2022/03/08 11:52:17;;;;;;;10.40;5.70;;;;;;;;;;5038706;28;20272;-69
2022/03/08 11:54:54;;;;;;;9.52;5.72;;;;;;;;;;5038037;28;20553;-69
2022/03/08 11:57:38;;;;;;;9.02;5.43;;;;;;;;;;5038477;28;20070;-68
2022/03/08 12:00:17;;;;;;;7.35;6.20;;;;;;;;;;5037102;28;20391;-69
2022/03/08 12:02:46;;;;;;;9.60;6.07;;;;;;;;;;5036855;28;20024;-68
2022/03/08 12:05:30;;;;;;;8.82;5.95;;;;;;;;;;5039536;28;20017;-69
2022/03/08 12:07:55;;;;;;;8.68;5.88;;;;;;;;;;5030653;28;20113;-68
2022/03/08 12:10:27;;;;;;;16.48;6.68;;;;;;;;;;5024227;28;20305;-70
2022/03/08 12:12:54;;;;;;;10.23;6.10;;;;;;;;;;5022323;28;20444;-69
2022/03/08 12:15:20;;;;;;;13.77;7.15;;;;;;;;;;5008939;28;20087;-69
2022/03/08 12:18:05;;;;;;;11.90;6.72;;;;;;;;;;5007795;28;20584;-68
2022/03/08 12:20:32;;;;;;;11.00;7.35;;;;;;;;;;5024699;28;20140;-68
2022/03/08 12:23:12;;;;;;;8.65;6.07;;;;;;;;;;5023963;28;20128;-69
2022/03/08 12:25:37;;;;;;;8.45;5.80;;;;;;;;;;5025281;28;20543;-69
2022/03/08 12:28:03;;;;;;;8.35;5.55;;;;;;;;;;5023961;28;20114;-69
2022/03/08 12:30:38;;;;;;;10.82;5.80;;;;;;;;;;5025603;28;20500;-69
2022/03/08 12:33:04;;;;;;;7.07;5.55;;;;;;;;;;5024282;28;20127;-69
2022/03/08 12:35:29;;;;;;;16.10;7.65;;;;;;;;;;5025156;28;20025;-68
2022/03/08 12:37:56;;;;;;;13.43;6.93;;;;;;;;;;5024237;28;20025;-68
2022/03/08 12:40:26;;;;;;;10.45;5.80;;;;;;;;;;5023546;28;20051;-69
2022/03/08 12:42:55;;;;;;;8.60;5.35;;;;;;;;;;5023342;28;20518;-68
2022/03/08 12:45:20;;;;;;;8.45;5.60;;;;;;;;;;5024812;28;20025;-69
2022/03/08 12:47:58;;;;;;;8.73;5.53;;;;;;;;;;5038373;28;20063;-68
2022/03/08 12:50:27;;;;;;;11.30;5.63;;;;;;;;;;5024650;28;20028;-68
2022/03/08 12:52:56;;;;;;;8.32;5.35;;;;;;;;;;5038111;28;22261;-68
2022/03/08 12:55:30;;;;;;;7.22;5.20;;;;;;;;;;5024719;28;20036;-68
2022/03/08 12:58:00;;;;;;;8.18;5.22;;;;;;;;;;5023672;28;20049;-68
2022/03/08 13:00:28;;;;;;;10.38;5.20;;;;;;;;;;5023809;28;20431;-68
2022/03/08 13:02:54;;;;;;;11.40;5.65;;;;;;;;;;5021797;28;20550;-69
2022/03/08 13:05:24;;;;;;;8.02;5.68;;;;;;;;;;5023701;28;20300;-69
2022/03/08 13:07:52;;;;;;;6.85;4.80;;;;;;;;;;5024580;28;20025;-69
2022/03/08 13:10:17;;;;;;;8.52;5.47;;;;;;;;;;5008678;28;20034;-69
2022/03/08 13:12:48;;;;;;;9.07;5.32;;;;;;;;;;5023186;28;20025;-69
2022/03/08 13:15:16;;;;;;;7.93;5.55;;;;;;;;;;5024191;28;20196;-68
2022/03/08 13:17:46;;;;;;;7.63;4.97;;;;;;;;;;5024090;28;20025;-69
2022/03/08 13:20:33;;;;;;;9.27;5.32;;;;;;;;;;5021947;28;21913;-69
2022/03/08 13:23:06;;;;;;;17.42;6.82;;;;;;;;;;5023032;28;20079;-69
2022/03/08 13:25:32;;;;;;;14.15;5.95;;;;;;;;;;5023342;28;20047;-69
2022/03/08 13:28:00;;;;;;;10.10;5.82;;;;;;;;;;5024129;28;20025;-69
2022/03/08 13:30:49;;;;;;;20.88;8.93;;;;;;;;;;5005632;28;20397;-69
2022/03/08 13:33:24;;;;;;;12.35;6.95;;;;;;;;;;5013024;28;20163;-68
2022/03/08 13:35:54;;;;;;;14.40;7.60;;;;;;;;;;5022799;28;20104;-68
2022/03/08 13:38:30;;;;;;;13.88;8.13;;;;;;;;;;5024311;28;20056;-69
2022/03/08 13:40:59;;;;;;;15.05;6.82;;;;;;;;;;5002271;28;20618;-70
2022/03/08 13:43:25;;;;;;;9.13;5.68;;;;;;;;;;5023415;28;20021;-70
2022/03/08 13:45:51;;;;;;;9.98;5.97;;;;;;;;;;5023359;28;20028;-69
2022/03/08 13:48:21;;;;;;;13.02;6.70;;;;;;;;;;5021590;28;20527;-69
2022/03/08 13:50:48;;;;;;;12.02;6.60;;;;;;;;;;5023320;28;20124;-68
2022/03/08 13:53:14;;;;;;;11.15;6.25;;;;;;;;;;5004499;28;20024;-68
2022/03/08 13:55:41;;;;;;;9.77;6.38;;;;;;;;;;5022305;28;20035;-69
2022/03/08 13:58:07;;;;;;;11.18;6.82;;;;;;;;;;5021003;28;20677;-69
2022/03/08 14:00:36;;;;;;;9.35;6.43;;;;;;;;;;5020935;28;20650;-70
2022/03/08 14:03:03;;;;;;;10.88;6.47;;;;;;;;;;5019662;28;20024;-68
2022/03/08 14:05:28;;;;;;;10.43;6.72;;;;;;;;;;5023210;28;20040;-69
2022/03/08 14:08:03;;;;;;;12.82;6.13;;;;;;;;;;5021208;28;20534;-68
2022/03/08 14:10:29;;;;;;;8.98;6.78;;;;;;;;;;5022910;28;20755;-67
2022/03/08 14:12:58;;;;;;;11.07;6.38;;;;;;;;;;5020453;28;20104;-67
2022/03/08 14:15:29;;;;;;;12.30;5.90;;;;;;;;;;5020943;28;20115;-68
2022/03/08 14:18:05;;;;;;;12.15;7.00;;;;;;;;;;5019564;28;20079;-69
2022/03/08 14:20:35;;;;;;;9.57;6.07;;;;;;;;;;5022610;28;20025;-69
2022/03/08 14:23:08;;;;;;;15.85;9.48;;;;;;;;;;5021921;28;20028;-68
2022/03/08 14:25:53;;;;;;;18.33;9.10;;;;;;;;;;5037046;28;20033;-69
2022/03/08 14:28:20;;;;;;;26.20;12.38;;;;;;;;;;5023033;28;20031;-68
2022/03/08 14:30:48;;;;;;;24.55;10.93;;;;;;;;;;5021789;28;20467;-69
2022/03/08 14:33:13;;;;;;;14.98;8.10;;;;;;;;;;4996567;28;20225;-69